Time;durP1;ratioP1;P1;durP2;ratioP2;P2;SDS_P1;SDS_P2;PMS_P1;PMS_P2;Temp;Humidity;BMP_temperature;BMP_pressure;BME280_temperature;BME280_humidity;BME280_pressure;Samples;Min_cycle;Max_cycle;Signal;HPM_P1;HPM_P2
2023/01/05 00:00:54;;;;;;;0.70;0.70;;;;;;;;;;4897675;29;20473;-82
2023/01/05 00:03:21;;;;;;;0.70;0.70;;;;;;;;;;4900149;29;20467;-82
2023/01/05 00:05:48;;;;;;;0.70;0.70;;;;;;;;;;4908187;29;20505;-80
2023/01/05 00:08:14;;;;;;;0.70;0.60;;;;;;;;;;4892446;29;20468;-82
2023/01/05 00:24:31;;;;;;;0.70;0.60;;;;;;;;;;4896080;29;20460;-77
2023/01/05 00:27:00;;;;;;;0.70;0.60;;;;;;;;;;4901251;29;20461;-79
2023/01/05 00:29:26;;;;;;;0.77;0.77;;;;;;;;;;4900990;29;20542;-77
2023/01/05 00:31:53;;;;;;;0.70;0.70;;;;;;;;;;4898290;29;20542;-80
2023/01/05 00:34:21;;;;;;;0.70;0.70;;;;;;;;;;4897205;29;20441;-81
2023/01/05 00:36:48;;;;;;;0.73;0.73;;;;;;;;;;4906543;29;20460;-82
2023/01/05 00:39:17;;;;;;;0.70;0.70;;;;;;;;;;4891549;29;20993;-80
2023/01/05 00:41:43;;;;;;;0.70;0.70;;;;;;;;;;4904536;29;20486;-79
2023/01/05 00:44:13;;;;;;;0.70;0.70;;;;;;;;;;4900813;29;20457;-76
2023/01/05 00:46:40;;;;;;;0.70;0.70;;;;;;;;;;4899804;29;20464;-80
2023/01/05 00:49:07;;;;;;;0.70;0.70;;;;;;;;;;4896516;29;20571;-77
2023/01/05 00:51:34;;;;;;;0.70;0.60;;;;;;;;;;4900860;29;20442;-80
2023/01/05 00:54:01;;;;;;;0.70;0.70;;;;;;;;;;4888433;29;20519;-80
2023/01/05 00:56:28;;;;;;;0.80;0.80;;;;;;;;;;4902828;29;20457;-81
2023/01/05 00:58:55;;;;;;;0.70;0.70;;;;;;;;;;4899068;29;20458;-79
2023/01/05 01:01:23;;;;;;;0.70;0.70;;;;;;;;;;4899254;29;20512;-79
2023/01/05 01:03:50;;;;;;;0.70;0.70;;;;;;;;;;4895206;29;20469;-80
2023/01/05 01:06:18;;;;;;;0.70;0.70;;;;;;;;;;4909417;29;20446;-79
2023/01/05 01:08:44;;;;;;;0.70;0.60;;;;;;;;;;4897120;29;20472;-83
2023/01/05 01:11:11;;;;;;;0.73;0.73;;;;;;;;;;4902609;29;20464;-80
2023/01/05 01:13:38;;;;;;;0.70;0.70;;;;;;;;;;4909761;29;20474;-81
2023/01/05 01:16:06;;;;;;;0.70;0.70;;;;;;;;;;4883686;29;20519;-81
2023/01/05 01:18:34;;;;;;;2.03;1.93;;;;;;;;;;4893860;29;20470;-80
2023/01/05 01:21:01;;;;;;;0.70;0.70;;;;;;;;;;4900542;29;20489;-81
2023/01/05 01:23:29;;;;;;;0.60;0.60;;;;;;;;;;4894134;29;20831;-83
2023/01/05 01:25:55;;;;;;;0.70;0.70;;;;;;;;;;4900586;29;20454;-80
2023/01/05 01:28:22;;;;;;;0.70;0.70;;;;;;;;;;4900400;29;20458;-81
2023/01/05 01:30:49;;;;;;;1.20;1.20;;;;;;;;;;4896787;29;20471;-80
2023/01/05 01:33:16;;;;;;;2.13;2.03;;;;;;;;;;4906501;29;20474;-82
2023/01/05 01:35:46;;;;;;;0.70;0.63;;;;;;;;;;4904678;29;20458;-77
2023/01/05 01:38:14;;;;;;;0.70;0.60;;;;;;;;;;4893077;29;20455;-79
2023/01/05 01:40:42;;;;;;;0.70;0.70;;;;;;;;;;4904436;29;20480;-81
2023/01/05 01:43:12;;;;;;;0.70;0.60;;;;;;;;;;4898908;29;21018;-80
2023/01/05 01:45:39;;;;;;;0.70;0.70;;;;;;;;;;4905265;29;20458;-81
2023/01/05 01:48:09;;;;;;;0.70;0.70;;;;;;;;;;4899894;29;20921;-81
2023/01/05 01:50:37;;;;;;;0.80;0.80;;;;;;;;;;4885080;29;20523;-79
2023/01/05 01:53:06;;;;;;;0.70;0.70;;;;;;;;;;4894001;29;20488;-78
2023/01/05 01:55:34;;;;;;;0.70;0.60;;;;;;;;;;4895260;29;20462;-83
2023/01/05 01:58:02;;;;;;;0.70;0.67;;;;;;;;;;4895482;29;20443;-83
2023/01/05 02:00:29;;;;;;;0.70;0.70;;;;;;;;;;4904330;29;20980;-80
2023/01/05 02:02:57;;;;;;;0.70;0.63;;;;;;;;;;4899615;29;20541;-81
2023/01/05 02:05:27;;;;;;;0.70;0.70;;;;;;;;;;4897302;29;20516;-82
2023/01/05 02:07:55;;;;;;;0.73;0.73;;;;;;;;;;4904177;29;20458;-79
2023/01/05 02:10:31;;;;;;;0.70;0.70;;;;;;;;;;4895666;29;20458;-82
2023/01/05 02:13:02;;;;;;;0.70;0.70;;;;;;;;;;4903353;29;20478;-80
2023/01/05 02:15:37;;;;;;;0.70;0.67;;;;;;;;;;4894019;29;20472;-80
2023/01/05 02:18:17;;;;;;;0.70;0.67;;;;;;;;;;4899855;29;20989;-85
2023/01/05 02:21:19;;;;;;;2.20;1.57;;;;;;;;;;4905521;29;20476;-80
2023/01/05 02:24:17;;;;;;;0.70;0.70;;;;;;;;;;4891389;29;20574;-81
2023/01/05 02:27:21;;;;;;;0.80;0.80;;;;;;;;;;4864492;29;20482;-83
2023/01/05 02:30:11;;;;;;;0.70;0.70;;;;;;;;;;4840449;29;20461;-80
2023/01/05 02:32:47;;;;;;;0.70;0.60;;;;;;;;;;4823734;29;21549;-80
2023/01/05 02:35:23;;;;;;;0.70;0.60;;;;;;;;;;4884973;29;21413;-80
2023/01/05 02:38:03;;;;;;;0.70;0.70;;;;;;;;;;4892126;29;20934;-81
2023/01/05 02:40:41;;;;;;;0.70;0.70;;;;;;;;;;4897471;29;20513;-82
2023/01/05 02:43:14;;;;;;;0.70;0.70;;;;;;;;;;4896136;29;20498;-80
2023/01/05 02:45:44;;;;;;;0.70;0.70;;;;;;;;;;4897369;29;20460;-81
2023/01/05 02:48:17;;;;;;;0.70;0.70;;;;;;;;;;4899745;29;20481;-80
2023/01/05 02:50:53;;;;;;;0.80;0.80;;;;;;;;;;4892698;29;20443;-78
2023/01/05 02:53:33;;;;;;;0.70;0.70;;;;;;;;;;4894738;29;20456;-79
2023/01/05 02:56:05;;;;;;;0.70;0.70;;;;;;;;;;4890362;29;20455;-82
2023/01/05 02:58:39;;;;;;;0.70;0.70;;;;;;;;;;4898052;29;20659;-81
2023/01/05 03:01:14;;;;;;;0.70;0.70;;;;;;;;;;4886942;29;20504;-80
2023/01/05 03:03:54;;;;;;;0.70;0.67;;;;;;;;;;4883995;29;20910;-79
2023/01/05 03:06:27;;;;;;;0.70;0.70;;;;;;;;;;4863324;29;20470;-80
2023/01/05 03:09:19;;;;;;;0.70;0.70;;;;;;;;;;4879283;29;20416;-81
2023/01/05 03:14:46;;;;;;;0.70;0.70;;;;;;;;;;4889351;29;20486;-81
2023/01/05 03:17:20;;;;;;;0.70;0.70;;;;;;;;;;4888782;29;20471;-82
2023/01/05 03:19:54;;;;;;;0.70;0.70;;;;;;;;;;4896095;29;20463;-82
2023/01/05 03:36:57;;;;;;;0.70;0.70;;;;;;;;;;4889733;29;20457;-80
2023/01/05 03:39:30;;;;;;;0.60;0.60;;;;;;;;;;4901991;29;20471;-80
2023/01/05 03:42:05;;;;;;;0.70;0.70;;;;;;;;;;4901130;29;20992;-82
2023/01/05 03:44:38;;;;;;;0.70;0.60;;;;;;;;;;4886765;29;20815;-83
2023/01/05 03:47:15;;;;;;;0.70;0.60;;;;;;;;;;4902648;29;20493;-81
2023/01/05 03:49:47;;;;;;;0.70;0.60;;;;;;;;;;4891839;29;20841;-81
2023/01/05 03:52:19;;;;;;;0.70;0.70;;;;;;;;;;4896276;29;20459;-79
2023/01/05 03:54:52;;;;;;;0.70;0.60;;;;;;;;;;4889349;29;20551;-81
2023/01/05 03:57:21;;;;;;;0.70;0.60;;;;;;;;;;4896405;29;20956;-81
2023/01/05 03:59:48;;;;;;;0.73;0.73;;;;;;;;;;4896474;29;20984;-79
2023/01/05 04:02:15;;;;;;;0.70;0.60;;;;;;;;;;4894095;29;20840;-78
2023/01/05 04:04:46;;;;;;;0.70;0.60;;;;;;;;;;4891027;29;20449;-81
2023/01/05 04:07:13;;;;;;;0.70;0.60;;;;;;;;;;4897619;29;20541;-81
2023/01/05 04:09:41;;;;;;;0.70;0.70;;;;;;;;;;4898974;29;20460;-80
2023/01/05 04:12:11;;;;;;;0.70;0.70;;;;;;;;;;4885462;29;20953;-81
2023/01/05 04:14:42;;;;;;;0.70;0.70;;;;;;;;;;4886190;29;20456;-78
2023/01/05 04:17:09;;;;;;;0.70;0.60;;;;;;;;;;4890819;29;20448;-81
2023/01/05 04:19:37;;;;;;;0.70;0.70;;;;;;;;;;4900982;29;20458;-80
2023/01/05 04:22:04;;;;;;;0.70;0.70;;;;;;;;;;4901133;29;20599;-79
2023/01/05 04:24:31;;;;;;;0.70;0.70;;;;;;;;;;4905362;29;20460;-81
2023/01/05 04:27:01;;;;;;;0.70;0.70;;;;;;;;;;4895520;29;20468;-81
2023/01/05 04:29:28;;;;;;;0.70;0.60;;;;;;;;;;4901222;29;20867;-83
2023/01/05 04:31:58;;;;;;;0.70;0.60;;;;;;;;;;4906137;29;20442;-81
2023/01/05 04:34:25;;;;;;;0.70;0.70;;;;;;;;;;4881394;29;20552;-81
2023/01/05 04:36:54;;;;;;;0.80;0.80;;;;;;;;;;4891517;29;20802;-80
2023/01/05 04:39:21;;;;;;;0.70;0.60;;;;;;;;;;4896543;29;20466;-81
2023/01/05 04:41:49;;;;;;;0.70;0.70;;;;;;;;;;4902113;29;20493;-82
2023/01/05 04:44:20;;;;;;;0.93;0.93;;;;;;;;;;4898384;29;20523;-81
2023/01/05 04:46:48;;;;;;;0.70;0.70;;;;;;;;;;4890526;29;20451;-79
2023/01/05 04:49:16;;;;;;;0.70;0.60;;;;;;;;;;4893244;29;20544;-79
2023/01/05 04:51:45;;;;;;;0.70;0.70;;;;;;;;;;4895343;29;20455;-83
2023/01/05 04:54:12;;;;;;;0.70;0.67;;;;;;;;;;4904199;29;20535;-81
2023/01/05 04:56:40;;;;;;;0.70;0.70;;;;;;;;;;4910169;29;21105;-84
2023/01/05 04:59:08;;;;;;;0.70;0.70;;;;;;;;;;4898916;29;20457;-86
2023/01/05 05:01:37;;;;;;;0.80;0.80;;;;;;;;;;4897594;29;20564;-85
2023/01/05 05:04:08;;;;;;;1.33;1.23;;;;;;;;;;4898013;29;20464;-81
2023/01/05 05:06:36;;;;;;;0.70;0.60;;;;;;;;;;4893728;29;20444;-86
2023/01/05 05:09:04;;;;;;;0.70;0.60;;;;;;;;;;4900151;29;20449;-85
2023/01/05 05:11:31;;;;;;;0.70;0.70;;;;;;;;;;4900293;29;20446;-84
2023/01/05 05:13:58;;;;;;;0.70;0.60;;;;;;;;;;4907348;29;21006;-84
2023/01/05 05:16:26;;;;;;;0.70;0.60;;;;;;;;;;4901939;29;20821;-85
2023/01/05 05:18:56;;;;;;;0.70;0.67;;;;;;;;;;4889972;29;20597;-82
2023/01/05 05:21:26;;;;;;;0.70;0.70;;;;;;;;;;4885940;29;20472;-84
2023/01/05 05:23:54;;;;;;;0.90;0.90;;;;;;;;;;4898680;29;20457;-85
2023/01/05 05:26:20;;;;;;;0.70;0.60;;;;;;;;;;4879263;29;20481;-84
2023/01/05 05:28:48;;;;;;;0.70;0.70;;;;;;;;;;4897865;29;20558;-85
2023/01/05 05:31:15;;;;;;;0.70;0.70;;;;;;;;;;4891980;29;20436;-87
2023/01/05 05:33:43;;;;;;;0.70;0.60;;;;;;;;;;4892935;29;21064;-84
2023/01/05 05:36:11;;;;;;;0.70;0.70;;;;;;;;;;4898924;29;20533;-84
2023/01/05 05:38:38;;;;;;;0.70;0.70;;;;;;;;;;4888710;29;20522;-79
2023/01/05 05:41:05;;;;;;;0.70;0.60;;;;;;;;;;4896774;29;20433;-84
2023/01/05 05:43:32;;;;;;;17.97;1.43;;;;;;;;;;4890573;29;20456;-85
2023/01/05 05:45:59;;;;;;;0.70;0.60;;;;;;;;;;4894242;29;20839;-85
2023/01/05 05:48:26;;;;;;;0.70;0.70;;;;;;;;;;4889856;29;20463;-83
2023/01/05 05:50:53;;;;;;;0.70;0.70;;;;;;;;;;4896287;29;20528;-85
2023/01/05 05:53:21;;;;;;;0.70;0.70;;;;;;;;;;4891510;29;20458;-81
2023/01/05 05:55:48;;;;;;;0.73;0.73;;;;;;;;;;4892584;29;20464;-84
2023/01/05 05:58:15;;;;;;;0.73;0.73;;;;;;;;;;4894613;29;20806;-84
2023/01/05 06:00:43;;;;;;;0.70;0.70;;;;;;;;;;4890226;29;20983;-85
2023/01/05 06:03:10;;;;;;;0.67;0.60;;;;;;;;;;4895859;29;20483;-83
2023/01/05 06:05:37;;;;;;;1.37;1.27;;;;;;;;;;4898139;29;20455;-79
2023/01/05 06:08:04;;;;;;;0.70;0.70;;;;;;;;;;4894228;29;20844;-82
2023/01/05 06:10:32;;;;;;;0.77;0.77;;;;;;;;;;4888359;29;20442;-82
2023/01/05 06:13:00;;;;;;;0.70;0.70;;;;;;;;;;4892880;29;20942;-80
2023/01/05 06:15:27;;;;;;;0.70;0.60;;;;;;;;;;4889283;29;20873;-81
2023/01/05 06:17:54;;;;;;;0.70;0.67;;;;;;;;;;4892170;29;20473;-81
2023/01/05 06:20:21;;;;;;;0.70;0.60;;;;;;;;;;4900131;29;20518;-84
2023/01/05 06:22:47;;;;;;;0.60;0.60;;;;;;;;;;4902096;29;20491;-84
2023/01/05 06:25:14;;;;;;;0.60;0.60;;;;;;;;;;4906859;29;21015;-82
2023/01/05 06:27:42;;;;;;;0.60;0.60;;;;;;;;;;4897041;29;20454;-82
2023/01/05 06:30:10;;;;;;;0.70;0.60;;;;;;;;;;4897699;29;20483;-85
2023/01/05 06:32:39;;;;;;;0.70;0.70;;;;;;;;;;4885780;29;20874;-84
2023/01/05 06:35:06;;;;;;;1.00;1.00;;;;;;;;;;4896644;29;20460;-85
2023/01/05 06:37:33;;;;;;;0.70;0.70;;;;;;;;;;4896239;29;20561;-81
2023/01/05 06:40:03;;;;;;;0.80;0.80;;;;;;;;;;4889538;29;20450;-84
2023/01/05 06:42:31;;;;;;;0.80;0.80;;;;;;;;;;4886524;29;20841;-86
2023/01/05 06:45:01;;;;;;;0.70;0.60;;;;;;;;;;4889320;29;20483;-83
2023/01/05 06:47:28;;;;;;;0.60;0.60;;;;;;;;;;4889491;29;20463;-80
2023/01/05 06:49:55;;;;;;;2.93;2.50;;;;;;;;;;4895185;29;20456;-80
2023/01/05 06:52:21;;;;;;;0.60;0.60;;;;;;;;;;4893934;29;20461;-81
2023/01/05 06:54:48;;;;;;;0.70;0.60;;;;;;;;;;4895985;29;20459;-80
2023/01/05 06:57:15;;;;;;;0.70;0.63;;;;;;;;;;4895177;29;20448;-83
2023/01/05 06:59:42;;;;;;;0.70;0.60;;;;;;;;;;4891165;29;20995;-81
2023/01/05 07:02:13;;;;;;;1.30;0.97;;;;;;;;;;4889264;29;20511;-80
2023/01/05 07:04:40;;;;;;;0.70;0.70;;;;;;;;;;4896138;29;20818;-82
2023/01/05 07:07:08;;;;;;;0.63;0.60;;;;;;;;;;4886916;29;20478;-80
2023/01/05 07:09:34;;;;;;;1.73;1.63;;;;;;;;;;4894064;29;20574;-81
2023/01/05 07:12:01;;;;;;;0.80;0.80;;;;;;;;;;4894522;29;20532;-82
2023/01/05 07:14:31;;;;;;;9.77;1.93;;;;;;;;;;4894026;29;20462;-83
2023/01/05 07:16:59;;;;;;;0.60;0.60;;;;;;;;;;4894240;29;20475;-82
2023/01/05 07:19:27;;;;;;;0.70;0.70;;;;;;;;;;4887029;29;20441;-79
2023/01/05 07:21:56;;;;;;;0.70;0.70;;;;;;;;;;4903663;29;20485;-82
2023/01/05 07:24:23;;;;;;;0.70;0.60;;;;;;;;;;4887207;29;20461;-83
2023/01/05 07:26:50;;;;;;;0.70;0.70;;;;;;;;;;4890722;29;20468;-82
2023/01/05 07:29:17;;;;;;;0.70;0.63;;;;;;;;;;4878081;29;20573;-80
2023/01/05 07:31:43;;;;;;;0.80;0.80;;;;;;;;;;4893117;29;20515;-82
2023/01/05 07:34:10;;;;;;;0.70;0.70;;;;;;;;;;4893102;29;20965;-81
2023/01/05 07:36:38;;;;;;;0.60;0.60;;;;;;;;;;4896133;29;20544;-80
2023/01/05 07:39:05;;;;;;;0.70;0.63;;;;;;;;;;4888877;29;20441;-80
2023/01/05 07:41:32;;;;;;;0.70;0.70;;;;;;;;;;4892765;29;20466;-80
2023/01/05 07:44:00;;;;;;;0.80;0.80;;;;;;;;;;4895501;29;20848;-81
2023/01/05 07:46:26;;;;;;;0.77;0.77;;;;;;;;;;4894169;29;20481;-80
2023/01/05 07:48:54;;;;;;;0.70;0.60;;;;;;;;;;4894941;29;20826;-82
2023/01/05 07:51:21;;;;;;;0.80;0.80;;;;;;;;;;4890392;29;20435;-80
2023/01/05 07:53:49;;;;;;;0.70;0.70;;;;;;;;;;4893363;29;20436;-80
2023/01/05 07:56:15;;;;;;;0.70;0.70;;;;;;;;;;4895955;29;20461;-83
2023/01/05 07:58:44;;;;;;;0.80;0.80;;;;;;;;;;4893854;29;20451;-81
2023/01/05 08:01:11;;;;;;;0.70;0.70;;;;;;;;;;4894074;29;20439;-80
2023/01/05 08:03:38;;;;;;;0.70;0.60;;;;;;;;;;4892973;29;20543;-80
2023/01/05 08:06:07;;;;;;;0.80;0.80;;;;;;;;;;4907065;29;20464;-81
2023/01/05 08:08:35;;;;;;;0.70;0.60;;;;;;;;;;4897931;29;20463;-79
2023/01/05 08:11:04;;;;;;;0.60;0.60;;;;;;;;;;4907226;29;20826;-80
2023/01/05 08:16:17;;;;;;;0.70;0.63;;;;;;;;;;4895782;29;20508;-80
2023/01/05 08:18:45;;;;;;;0.70;0.60;;;;;;;;;;4895356;29;20489;-79
2023/01/05 08:21:12;;;;;;;0.70;0.60;;;;;;;;;;4896008;29;20439;-78
2023/01/05 08:23:39;;;;;;;0.67;0.60;;;;;;;;;;4884920;29;20469;-77
2023/01/05 08:26:27;;;;;;;0.70;0.70;;;;;;;;;;4900386;29;20470;-80
2023/01/05 08:28:57;;;;;;;0.80;0.80;;;;;;;;;;4907021;29;20858;-80
2023/01/05 08:31:26;;;;;;;1.00;1.00;;;;;;;;;;4897402;29;20805;-78
2023/01/05 08:33:54;;;;;;;1.00;1.00;;;;;;;;;;4896068;29;20511;-78
2023/01/05 08:36:20;;;;;;;0.70;0.70;;;;;;;;;;4898814;29;21007;-78
2023/01/05 08:38:49;;;;;;;1.07;0.90;;;;;;;;;;4893837;29;20546;-80
2023/01/05 08:41:17;;;;;;;0.70;0.70;;;;;;;;;;4888254;29;20448;-80
2023/01/05 08:43:50;;;;;;;0.70;0.60;;;;;;;;;;4881163;29;20475;-80
2023/01/05 08:46:18;;;;;;;0.70;0.70;;;;;;;;;;4896585;29;20524;-81
2023/01/05 08:48:48;;;;;;;0.70;0.60;;;;;;;;;;4895462;29;20474;-78
2023/01/05 08:51:15;;;;;;;0.70;0.70;;;;;;;;;;4875261;29;20841;-82
2023/01/05 08:53:42;;;;;;;0.80;0.80;;;;;;;;;;4897774;29;20486;-81
2023/01/05 08:56:09;;;;;;;0.70;0.70;;;;;;;;;;4889347;29;20437;-80
2023/01/05 08:58:37;;;;;;;0.70;0.60;;;;;;;;;;4892718;29;20454;-83
2023/01/05 09:01:09;;;;;;;0.70;0.70;;;;;;;;;;4893669;29;20447;-82
2023/01/05 09:03:36;;;;;;;1.00;0.90;;;;;;;;;;4905734;29;20823;-80
2023/01/05 09:06:04;;;;;;;1.27;1.17;;;;;;;;;;4897721;29;20507;-83
2023/01/05 09:08:32;;;;;;;1.33;1.23;;;;;;;;;;4889012;29;20476;-83
2023/01/05 09:11:04;;;;;;;0.70;0.60;;;;;;;;;;4893318;29;20447;-83
2023/01/05 09:13:31;;;;;;;0.70;0.60;;;;;;;;;;4892597;29;20456;-82
2023/01/05 09:16:02;;;;;;;0.80;0.80;;;;;;;;;;4896341;29;20466;-80
2023/01/05 09:18:30;;;;;;;0.80;0.80;;;;;;;;;;4897210;29;20479;-78
2023/01/05 09:20:57;;;;;;;0.70;0.67;;;;;;;;;;4897180;29;20501;-81
2023/01/05 09:23:24;;;;;;;0.70;0.70;;;;;;;;;;4888528;29;20464;-82
2023/01/05 09:25:51;;;;;;;1.23;1.13;;;;;;;;;;4891637;29;20709;-83
2023/01/05 09:28:18;;;;;;;0.70;0.70;;;;;;;;;;4895781;29;21168;-82
2023/01/05 09:30:45;;;;;;;0.70;0.70;;;;;;;;;;4905395;29;20463;-84
2023/01/05 09:33:16;;;;;;;0.60;0.60;;;;;;;;;;4910077;29;20516;-82
2023/01/05 09:35:51;;;;;;;0.70;0.70;;;;;;;;;;4923892;29;20535;-82
2023/01/05 09:38:18;;;;;;;0.80;0.80;;;;;;;;;;4903490;29;20508;-83
2023/01/05 09:40:46;;;;;;;0.70;0.70;;;;;;;;;;4901726;29;20456;-84
2023/01/05 09:43:18;;;;;;;0.70;0.70;;;;;;;;;;4890144;29;20468;-80
2023/01/05 09:45:45;;;;;;;0.77;0.73;;;;;;;;;;4902306;29;20818;-81
2023/01/05 09:48:13;;;;;;;0.70;0.70;;;;;;;;;;4890994;29;20953;-79
2023/01/05 09:50:41;;;;;;;0.80;0.80;;;;;;;;;;4895824;29;20440;-80
2023/01/05 09:53:11;;;;;;;0.70;0.70;;;;;;;;;;4891114;29;20454;-82
2023/01/05 09:55:40;;;;;;;0.70;0.70;;;;;;;;;;4877146;29;20946;-83
2023/01/05 09:58:10;;;;;;;1.00;1.00;;;;;;;;;;4896248;29;20455;-81
2023/01/05 10:00:40;;;;;;;0.70;0.70;;;;;;;;;;4896458;29;20463;-82
2023/01/05 10:03:10;;;;;;;0.77;0.77;;;;;;;;;;4896220;29;20899;-77
2023/01/05 10:05:57;;;;;;;0.70;0.70;;;;;;;;;;4892275;29;20820;-80
2023/01/05 10:08:31;;;;;;;0.80;0.80;;;;;;;;;;4899341;29;20450;-79
2023/01/05 10:14:00;;;;;;;0.70;0.60;;;;;;;;;;4861596;29;20457;-79
2023/01/05 10:16:28;;;;;;;0.70;0.70;;;;;;;;;;4894554;29;20830;-80
2023/01/05 10:18:56;;;;;;;0.80;0.80;;;;;;;;;;4881166;29;21084;-80
2023/01/05 10:21:29;;;;;;;0.70;0.70;;;;;;;;;;4894884;29;20484;-78
2023/01/05 10:24:04;;;;;;;0.70;0.70;;;;;;;;;;4892664;29;20528;-79
2023/01/05 10:26:35;;;;;;;0.73;0.73;;;;;;;;;;4895688;29;20467;-80
2023/01/05 10:29:25;;;;;;;1.00;1.00;;;;;;;;;;4892121;29;20488;-81
2023/01/05 10:31:54;;;;;;;0.70;0.60;;;;;;;;;;4896902;29;20441;-80
2023/01/05 10:34:22;;;;;;;0.70;0.60;;;;;;;;;;4889757;29;20442;-80
2023/01/05 10:47:27;;;;;;;0.80;0.80;;;;;;;;;;6230350;22;1730524;-78
2023/01/05 10:49:54;;;;;;;0.80;0.80;;;;;;;;;;6224329;23;20168;-78
2023/01/05 10:52:22;;;;;;;4.30;2.40;;;;;;;;;;6249081;23;20395;-78
2023/01/05 10:54:51;;;;;;;0.70;0.60;;;;;;;;;;6223760;23;20403;-77
2023/01/05 10:57:31;;;;;;;0.73;0.73;;;;;;;;;;6223348;23;20410;-79
2023/01/05 11:00:03;;;;;;;0.80;0.80;;;;;;;;;;6223912;23;20380;-77
2023/01/05 11:02:35;;;;;;;0.70;0.70;;;;;;;;;;6223027;23;20447;-78
2023/01/05 11:05:03;;;;;;;0.77;0.77;;;;;;;;;;6198221;23;20400;-77
2023/01/05 11:07:30;;;;;;;0.80;0.80;;;;;;;;;;6222754;23;20374;-78
2023/01/05 11:09:57;;;;;;;0.80;0.80;;;;;;;;;;6222717;23;20381;-78
2023/01/05 11:12:24;;;;;;;0.70;0.70;;;;;;;;;;6221689;23;20932;-79
2023/01/05 11:14:52;;;;;;;0.70;0.70;;;;;;;;;;6221713;23;20499;-80
2023/01/05 11:17:27;;;;;;;0.80;0.80;;;;;;;;;;6221933;23;20512;-77
2023/01/05 11:19:56;;;;;;;0.70;0.70;;;;;;;;;;6221867;23;20402;-77
2023/01/05 11:22:27;;;;;;;0.83;0.83;;;;;;;;;;6221923;23;20375;-81
2023/01/05 11:25:11;;;;;;;0.70;0.70;;;;;;;;;;6222334;23;20385;-81
2023/01/05 11:27:39;;;;;;;0.80;0.80;;;;;;;;;;6223284;23;20392;-80
2023/01/05 11:30:24;;;;;;;0.70;0.70;;;;;;;;;;6222818;23;20429;-80
2023/01/05 11:32:52;;;;;;;0.70;0.70;;;;;;;;;;6223012;23;20448;-80
2023/01/05 11:35:24;;;;;;;1.10;1.10;;;;;;;;;;6222848;23;20411;-80
2023/01/05 11:37:52;;;;;;;0.87;0.87;;;;;;;;;;6222564;23;20387;-81
2023/01/05 11:40:22;;;;;;;0.70;0.70;;;;;;;;;;6220764;23;20490;-82
2023/01/05 11:42:49;;;;;;;0.80;0.80;;;;;;;;;;6221496;23;20425;-80
2023/01/05 11:45:23;;;;;;;0.70;0.70;;;;;;;;;;6222212;23;20381;-79
2023/01/05 11:47:51;;;;;;;0.80;0.77;;;;;;;;;;6190832;23;20817;-80
2023/01/05 11:50:24;;;;;;;0.70;0.70;;;;;;;;;;6215391;23;20379;-80
2023/01/05 11:52:52;;;;;;;0.70;0.70;;;;;;;;;;6214574;23;20377;-79
2023/01/05 11:55:32;;;;;;;0.70;0.70;;;;;;;;;;6214402;23;20483;-80
2023/01/05 11:58:11;;;;;;;0.70;0.70;;;;;;;;;;6216655;23;20860;-79
2023/01/05 12:00:46;;;;;;;0.70;0.70;;;;;;;;;;6215090;23;20399;-79
2023/01/05 12:03:24;;;;;;;0.70;0.60;;;;;;;;;;6190204;23;20428;-77
2023/01/05 12:05:55;;;;;;;0.70;0.70;;;;;;;;;;6217824;23;20706;-80
2023/01/05 12:08:26;;;;;;;0.87;0.87;;;;;;;;;;6216483;23;20454;-77
2023/01/05 12:11:04;;;;;;;0.70;0.70;;;;;;;;;;6215047;23;20410;-80
2023/01/05 12:13:44;;;;;;;1.40;1.30;;;;;;;;;;6216300;23;20404;-80
2023/01/05 12:16:19;;;;;;;0.70;0.70;;;;;;;;;;6214056;23;20431;-79
2023/01/05 12:18:55;;;;;;;0.70;0.70;;;;;;;;;;6212974;23;20412;-79
2023/01/05 12:21:24;;;;;;;0.90;0.90;;;;;;;;;;6212770;23;20403;-79
2023/01/05 12:24:04;;;;;;;0.80;0.80;;;;;;;;;;6212229;23;20430;-80
2023/01/05 12:26:33;;;;;;;0.70;0.70;;;;;;;;;;6212042;23;20412;-80
2023/01/05 12:29:27;;;;;;;0.70;0.60;;;;;;;;;;6215516;23;20377;-80
2023/01/05 12:32:24;;;;;;;1.30;1.20;;;;;;;;;;6146964;23;20981;-79
2023/01/05 12:35:23;;;;;;;0.80;0.80;;;;;;;;;;6214573;23;20463;-80
2023/01/05 12:37:59;;;;;;;0.80;0.80;;;;;;;;;;6214497;23;20382;-79
2023/01/05 12:40:33;;;;;;;0.70;0.70;;;;;;;;;;6214644;23;20892;-80
2023/01/05 12:43:00;;;;;;;0.70;0.70;;;;;;;;;;6212606;23;20818;-80
2023/01/05 12:45:42;;;;;;;0.70;0.70;;;;;;;;;;6215483;23;20385;-79
2023/01/05 12:48:12;;;;;;;0.80;0.80;;;;;;;;;;6214404;23;20517;-82
2023/01/05 12:50:43;;;;;;;0.70;0.70;;;;;;;;;;6214331;23;20396;-79
2023/01/05 12:53:16;;;;;;;0.70;0.70;;;;;;;;;;6216859;23;20490;-81
2023/01/05 12:55:45;;;;;;;0.70;0.67;;;;;;;;;;6215667;23;20513;-83
2023/01/05 12:58:14;;;;;;;0.80;0.80;;;;;;;;;;6217827;23;20379;-81
2023/01/05 13:00:45;;;;;;;0.70;0.60;;;;;;;;;;6215747;23;20729;-84
2023/01/05 13:03:16;;;;;;;0.80;0.80;;;;;;;;;;6216731;23;20713;-81
2023/01/05 13:05:45;;;;;;;0.70;0.60;;;;;;;;;;6218293;23;20374;-81
2023/01/05 13:08:16;;;;;;;0.70;0.70;;;;;;;;;;6217507;23;20763;-79
2023/01/05 13:10:46;;;;;;;0.70;0.70;;;;;;;;;;6216730;23;20380;-80
2023/01/05 13:13:14;;;;;;;0.70;0.60;;;;;;;;;;6218177;23;20861;-81
2023/01/05 13:15:45;;;;;;;0.70;0.70;;;;;;;;;;6215633;23;20443;-78
2023/01/05 13:18:14;;;;;;;0.70;0.70;;;;;;;;;;6215036;23;20418;-78
2023/01/05 13:20:42;;;;;;;0.70;0.70;;;;;;;;;;6215535;23;20389;-81
2023/01/05 13:23:15;;;;;;;0.70;0.70;;;;;;;;;;6215919;23;20476;-82
2023/01/05 13:25:47;;;;;;;0.80;0.80;;;;;;;;;;6190097;23;20430;-82
2023/01/05 13:28:19;;;;;;;0.70;0.60;;;;;;;;;;6215605;23;20463;-82
2023/01/05 13:30:52;;;;;;;0.70;0.63;;;;;;;;;;6215390;23;20770;-79
2023/01/05 13:33:29;;;;;;;0.70;0.70;;;;;;;;;;6212975;23;20418;-79
2023/01/05 13:36:02;;;;;;;0.77;0.77;;;;;;;;;;6213682;23;20927;-81
2023/01/05 13:38:53;;;;;;;0.70;0.70;;;;;;;;;;6213536;23;20406;-81
2023/01/05 13:41:30;;;;;;;0.80;0.73;;;;;;;;;;6215730;23;20391;-81
2023/01/05 13:44:11;;;;;;;0.70;0.70;;;;;;;;;;6215367;23;20385;-81
2023/01/05 13:46:43;;;;;;;0.80;0.80;;;;;;;;;;6215053;23;20810;-81
2023/01/05 13:49:23;;;;;;;0.70;0.70;;;;;;;;;;6211259;23;20423;-80
2023/01/05 13:51:52;;;;;;;0.70;0.70;;;;;;;;;;6186961;23;20393;-81
2023/01/05 13:54:28;;;;;;;0.70;0.70;;;;;;;;;;6214682;23;20435;-81
2023/01/05 13:57:12;;;;;;;0.70;0.70;;;;;;;;;;6212996;23;20469;-82
2023/01/05 13:59:40;;;;;;;0.70;0.70;;;;;;;;;;6238773;23;20417;-82
2023/01/05 14:02:25;;;;;;;0.70;0.70;;;;;;;;;;6212309;23;20437;-81
2023/01/05 14:04:52;;;;;;;0.80;0.80;;;;;;;;;;6215631;23;20381;-81
2023/01/05 14:07:20;;;;;;;1.80;1.40;;;;;;;;;;6213765;23;20393;-81
2023/01/05 14:09:50;;;;;;;0.70;0.70;;;;;;;;;;6214620;23;20387;-80
2023/01/05 14:12:26;;;;;;;3.67;3.37;;;;;;;;;;6213684;23;20399;-80
2023/01/05 14:14:58;;;;;;;0.70;0.70;;;;;;;;;;6212661;23;20402;-79
2023/01/05 14:18:01;;;;;;;0.70;0.70;;;;;;;;;;6212875;23;20767;-81
2023/01/05 14:20:40;;;;;;;1.10;1.10;;;;;;;;;;6093768;23;20394;-80
2023/01/05 14:23:25;;;;;;;0.80;0.80;;;;;;;;;;6070096;23;20417;-80
2023/01/05 14:25:55;;;;;;;0.80;0.80;;;;;;;;;;6163850;23;20421;-79
2023/01/05 14:28:39;;;;;;;0.70;0.70;;;;;;;;;;6213235;23;20847;-80
2023/01/05 14:31:24;;;;;;;0.70;0.60;;;;;;;;;;6215674;23;20841;-79
2023/01/05 14:33:56;;;;;;;0.70;0.60;;;;;;;;;;6186434;23;20808;-79
2023/01/05 14:36:29;;;;;;;0.70;0.70;;;;;;;;;;6216592;23;20820;-80
2023/01/05 14:38:56;;;;;;;0.70;0.70;;;;;;;;;;6216319;23;20802;-79
2023/01/05 14:41:24;;;;;;;0.70;0.70;;;;;;;;;;6213649;23;20412;-79
2023/01/05 14:43:57;;;;;;;0.70;0.60;;;;;;;;;;6212911;23;20478;-79
2023/01/05 14:46:25;;;;;;;0.70;0.70;;;;;;;;;;6214188;23;20432;-78
2023/01/05 14:48:58;;;;;;;0.70;0.70;;;;;;;;;;6211890;23;20942;-77
2023/01/05 14:51:25;;;;;;;0.70;0.70;;;;;;;;;;6213387;23;20435;-78
2023/01/05 14:53:53;;;;;;;0.70;0.70;;;;;;;;;;6213413;23;20398;-78
2023/01/05 14:56:22;;;;;;;0.70;0.70;;;;;;;;;;6215178;23;20502;-79
2023/01/05 14:58:53;;;;;;;0.70;0.70;;;;;;;;;;6188032;23;20457;-81
2023/01/05 15:01:25;;;;;;;0.80;0.80;;;;;;;;;;6214853;23;20433;-80
2023/01/05 15:03:54;;;;;;;0.70;0.70;;;;;;;;;;6212665;23;20430;-76
2023/01/05 15:06:25;;;;;;;0.70;0.60;;;;;;;;;;6213643;23;20758;-81
2023/01/05 15:09:13;;;;;;;0.80;0.80;;;;;;;;;;6216524;23;20379;-82
2023/01/05 15:11:44;;;;;;;0.80;0.80;;;;;;;;;;6213590;23;20915;-81
2023/01/05 15:14:31;;;;;;;0.80;0.80;;;;;;;;;;6215467;23;20679;-82
2023/01/05 15:17:08;;;;;;;0.70;0.70;;;;;;;;;;6215991;23;20432;-81
2023/01/05 15:19:44;;;;;;;0.70;0.70;;;;;;;;;;6213782;23;20422;-80
2023/01/05 15:22:27;;;;;;;0.70;0.67;;;;;;;;;;6213783;23;20405;-80
2023/01/05 15:25:25;;;;;;;0.70;0.70;;;;;;;;;;6216718;23;20398;-78
2023/01/05 15:27:57;;;;;;;0.70;0.60;;;;;;;;;;6178918;23;20864;-77
2023/01/05 15:30:35;;;;;;;0.80;0.80;;;;;;;;;;6216242;23;20373;-79
2023/01/05 15:33:08;;;;;;;0.80;0.80;;;;;;;;;;6214758;23;20484;-79
2023/01/05 15:35:39;;;;;;;0.70;0.70;;;;;;;;;;6214771;23;20385;-79
2023/01/05 15:38:17;;;;;;;3.13;1.13;;;;;;;;;;6214996;23;20606;-79
2023/01/05 15:40:44;;;;;;;0.70;0.60;;;;;;;;;;6216351;23;20408;-79
2023/01/05 15:43:13;;;;;;;0.70;0.60;;;;;;;;;;6216625;23;20386;-80
2023/01/05 15:45:42;;;;;;;0.70;0.70;;;;;;;;;;6215906;23;20466;-79
2023/01/05 15:48:13;;;;;;;0.60;0.60;;;;;;;;;;6216132;23;20515;-80
2023/01/05 15:50:43;;;;;;;0.70;0.60;;;;;;;;;;6216917;23;20771;-80
2023/01/05 15:53:21;;;;;;;0.70;0.70;;;;;;;;;;6215893;23;20404;-80